Time;durP1;ratioP1;P1;durP2;ratioP2;P2;SDS_P1;SDS_P2;PMS_P1;PMS_P2;Temp;Humidity;BMP_temperature;BMP_pressure;BME280_temperature;BME280_humidity;BME280_pressure;Samples;Min_cycle;Max_cycle;Signal;HPM_P1;HPM_P2
2024/01/20 00:00:46;;;;;;;14.40;7.05;;;-7.20;99.90;;;;;;2063800;28;20241;-65
2024/01/20 00:01:47;;;;;;;11.93;7.30;;;-7.20;99.90;;;;;;2061017;28;20368;-64
2024/01/20 00:02:49;;;;;;;11.88;6.18;;;-7.20;99.90;;;;;;2058667;28;20690;-65
2024/01/20 00:03:50;;;;;;;11.33;6.13;;;-7.20;99.90;;;;;;2061806;28;20230;-65
2024/01/20 00:04:51;;;;;;;12.80;7.07;;;-7.40;99.30;;;;;;2062576;28;20737;-65
2024/01/20 00:05:51;;;;;;;12.48;6.38;;;-7.50;98.50;;;;;;2069577;28;20264;-65
2024/01/20 00:06:52;;;;;;;14.50;6.70;;;-7.60;98.60;;;;;;2072436;28;20221;-65
2024/01/20 00:07:53;;;;;;;12.33;6.37;;;-7.60;98.10;;;;;;2062354;28;20222;-65
2024/01/20 00:08:55;;;;;;;18.23;7.70;;;-7.60;98.30;;;;;;2058828;28;20238;-64
2024/01/20 00:09:56;;;;;;;12.75;7.10;;;-7.50;98.60;;;;;;2068154;28;20237;-64
2024/01/20 00:10:56;;;;;;;13.70;7.10;;;-7.60;97.80;;;;;;2068399;28;20724;-65
2024/01/20 00:11:57;;;;;;;13.97;6.90;;;-7.50;98.30;;;;;;2064156;28;20588;-63
2024/01/20 00:12:58;;;;;;;15.38;6.78;;;-7.50;98.50;;;;;;2060983;28;20230;-65
2024/01/20 00:13:59;;;;;;;12.37;6.63;;;-7.40;99.70;;;;;;2067548;28;20224;-64
2024/01/20 00:15:01;;;;;;;15.70;7.07;;;-7.40;99.70;;;;;;2070443;28;20224;-65
2024/01/20 00:16:02;;;;;;;13.20;7.15;;;-7.60;99.70;;;;;;2061160;28;20221;-65
2024/01/20 00:17:03;;;;;;;14.00;7.93;;;-7.60;99.90;;;;;;2053778;28;20218;-64
2024/01/20 00:18:04;;;;;;;12.17;6.80;;;-7.60;99.90;;;;;;2055144;28;20190;-64
2024/01/20 00:19:05;;;;;;;15.00;7.43;;;-7.50;99.90;;;;;;2053735;28;20567;-65
2024/01/20 00:20:07;;;;;;;14.80;7.67;;;-7.60;99.90;;;;;;2061608;28;20229;-65
2024/01/20 00:21:08;;;;;;;19.30;7.32;;;-7.60;99.90;;;;;;2059143;28;20598;-65
2024/01/20 00:22:09;;;;;;;13.60;7.10;;;-7.60;99.90;;;;;;2061900;28;20205;-65
2024/01/20 00:23:09;;;;;;;14.90;8.40;;;-7.70;99.90;;;;;;2070106;28;20206;-64
2024/01/20 00:24:10;;;;;;;16.53;7.93;;;-7.60;99.90;;;;;;2061596;28;20190;-64
2024/01/20 00:25:11;;;;;;;14.87;7.73;;;-7.60;99.90;;;;;;2059047;28;20634;-65
2024/01/20 00:26:11;;;;;;;14.90;8.10;;;-7.70;99.90;;;;;;2070221;28;20192;-65
2024/01/20 00:27:12;;;;;;;14.20;8.20;;;-7.60;99.90;;;;;;2070313;28;20338;-65
2024/01/20 00:28:13;;;;;;;12.87;6.97;;;-7.60;99.90;;;;;;2070195;28;20663;-65
2024/01/20 00:29:13;;;;;;;15.50;8.30;;;-7.60;99.90;;;;;;2061379;28;20217;-65
2024/01/20 00:30:14;;;;;;;32.20;14.17;;;-7.70;99.90;;;;;;2054421;28;20197;-64
2024/01/20 00:31:15;;;;;;;33.43;15.50;;;-7.70;99.90;;;;;;2061898;28;20592;-65
2024/01/20 00:32:16;;;;;;;28.35;13.40;;;-7.60;99.90;;;;;;2063364;28;20237;-65
2024/01/20 00:33:16;;;;;;;28.47;13.77;;;-7.70;99.90;;;;;;2053094;28;20708;-65
2024/01/20 00:34:18;;;;;;;26.67;14.57;;;-7.80;99.90;;;;;;2054757;28;20194;-64
2024/01/20 00:35:19;;;;;;;25.10;11.48;;;-7.60;99.90;;;;;;2053615;28;20179;-65
2024/01/20 00:36:19;;;;;;;23.93;12.20;;;-7.80;99.90;;;;;;2060281;28;20250;-65
2024/01/20 00:37:20;;;;;;;21.93;10.10;;;-7.90;99.90;;;;;;2070212;28;20197;-65
2024/01/20 00:38:21;;;;;;;16.90;8.90;;;-7.80;99.90;;;;;;2062611;28;20251;-65
2024/01/20 00:39:22;;;;;;;19.50;10.55;;;-7.90;99.90;;;;;;2061590;28;20245;-64
2024/01/20 00:40:22;;;;;;;21.00;10.43;;;-7.90;99.90;;;;;;2069713;28;20687;-64
2024/01/20 00:41:23;;;;;;;23.73;12.13;;;-8.00;99.90;;;;;;2069982;28;20225;-63
2024/01/20 00:42:24;;;;;;;21.53;12.07;;;-8.00;99.90;;;;;;2070650;28;20642;-65
2024/01/20 00:43:24;;;;;;;23.57;11.97;;;-8.10;99.90;;;;;;2061239;28;20289;-65
2024/01/20 00:44:25;;;;;;;21.03;11.87;;;-8.10;99.90;;;;;;2061615;28;20237;-64
2024/01/20 00:45:25;;;;;;;25.30;11.97;;;-7.90;99.90;;;;;;2070173;28;20699;-64
2024/01/20 00:46:26;;;;;;;22.57;11.77;;;-7.90;99.90;;;;;;2061198;28;20308;-65
2024/01/20 00:47:27;;;;;;;22.20;11.93;;;-7.80;99.90;;;;;;2061344;28;20237;-64
2024/01/20 00:48:28;;;;;;;19.90;10.77;;;-7.80;99.90;;;;;;2071147;28;20693;-64
2024/01/20 00:49:28;;;;;;;19.67;10.27;;;-7.90;99.90;;;;;;2061584;28;20325;-65
2024/01/20 00:50:29;;;;;;;18.90;9.47;;;-7.90;99.90;;;;;;2053522;28;20270;-64
2024/01/20 00:51:30;;;;;;;18.87;9.43;;;-7.80;99.90;;;;;;2061339;28;20472;-64
2024/01/20 00:52:31;;;;;;;18.17;9.53;;;-7.90;99.50;;;;;;2069822;28;20234;-65
2024/01/20 00:53:31;;;;;;;14.67;8.23;;;-8.00;99.40;;;;;;2069829;28;20328;-65
2024/01/20 00:54:32;;;;;;;15.63;8.43;;;-7.90;99.90;;;;;;2065820;28;20234;-64
2024/01/20 00:55:33;;;;;;;17.83;9.40;;;-7.80;99.90;;;;;;2064059;28;20233;-65
2024/01/20 00:56:34;;;;;;;15.83;8.70;;;-7.80;99.90;;;;;;2070275;28;20225;-63
2024/01/20 00:57:34;;;;;;;16.67;8.57;;;-7.70;99.90;;;;;;2062200;28;20229;-65
2024/01/20 00:58:35;;;;;;;16.47;8.57;;;-7.80;99.90;;;;;;2057881;28;20714;-65
2024/01/20 00:59:36;;;;;;;20.77;8.63;;;-7.70;99.90;;;;;;2065428;28;20323;-65
2024/01/20 01:00:37;;;;;;;16.53;9.17;;;-7.70;99.90;;;;;;2070221;28;20229;-65
2024/01/20 01:01:38;;;;;;;18.40;9.40;;;-7.70;99.90;;;;;;2071000;28;20272;-65
2024/01/20 01:02:40;;;;;;;15.37;9.20;;;-7.70;99.90;;;;;;2069285;28;20421;-62
2024/01/20 01:03:42;;;;;;;18.92;9.95;;;-7.60;99.90;;;;;;2069865;28;20229;-65
2024/01/20 01:04:43;;;;;;;17.02;9.05;;;-7.60;99.90;;;;;;2063609;28;20286;-65
2024/01/20 01:05:44;;;;;;;20.27;10.27;;;-7.50;99.90;;;;;;2062400;28;20379;-64
2024/01/20 01:06:44;;;;;;;13.17;7.43;;;-7.60;99.90;;;;;;2071632;28;20233;-65
2024/01/20 01:07:45;;;;;;;13.43;7.87;;;-7.60;99.90;;;;;;2063823;28;20633;-65
2024/01/20 01:08:46;;;;;;;11.60;7.50;;;-7.60;99.90;;;;;;2064852;28;20238;-65
2024/01/20 01:09:47;;;;;;;17.17;8.23;;;-7.70;99.90;;;;;;2072662;28;20232;-64
2024/01/20 01:10:47;;;;;;;16.23;7.80;;;-7.60;99.90;;;;;;2063468;28;20259;-64
2024/01/20 01:11:48;;;;;;;13.33;7.33;;;-7.80;99.90;;;;;;2063134;28;20321;-63
2024/01/20 01:12:49;;;;;;;17.33;9.00;;;-7.70;99.90;;;;;;2071664;28;20260;-65
2024/01/20 01:13:50;;;;;;;17.48;8.57;;;-7.80;99.60;;;;;;2064561;28;20699;-64
2024/01/20 01:14:50;;;;;;;17.00;9.40;;;-7.70;99.90;;;;;;2063577;28;20230;-65
2024/01/20 01:15:51;;;;;;;18.20;9.07;;;-7.60;99.90;;;;;;2071888;28;20229;-65
2024/01/20 01:16:53;;;;;;;14.77;8.10;;;-7.60;99.80;;;;;;2071466;28;20244;-65
2024/01/20 01:17:53;;;;;;;17.00;8.82;;;-7.70;99.50;;;;;;2069683;28;20597;-65
2024/01/20 01:18:54;;;;;;;17.20;8.23;;;-7.80;98.60;;;;;;2070943;28;20229;-65
2024/01/20 01:19:55;;;;;;;14.30;7.83;;;-7.70;99.20;;;;;;2070962;28;20251;-65
2024/01/20 01:20:55;;;;;;;17.60;8.23;;;-7.60;99.90;;;;;;2070960;28;20233;-65
2024/01/20 01:21:56;;;;;;;16.53;8.80;;;-7.60;99.90;;;;;;2070831;28;20239;-65
2024/01/20 01:22:57;;;;;;;16.87;8.83;;;-7.60;99.90;;;;;;2062063;28;20253;-65
2024/01/20 01:23:57;;;;;;;13.53;7.93;;;-7.70;99.60;;;;;;2062224;28;20515;-65
2024/01/20 01:24:58;;;;;;;13.67;7.33;;;-7.80;98.80;;;;;;2062501;28;20230;-64
2024/01/20 01:25:59;;;;;;;13.77;7.97;;;-7.90;98.00;;;;;;2071132;28;20229;-65
2024/01/20 01:26:59;;;;;;;18.20;8.40;;;-7.90;98.10;;;;;;2071079;28;20252;-65
2024/01/20 01:28:00;;;;;;;13.67;7.67;;;-7.80;98.30;;;;;;2070672;28;20279;-65
2024/01/20 01:29:01;;;;;;;14.40;8.17;;;-7.90;97.70;;;;;;2061260;28;20296;-65
2024/01/20 01:30:02;;;;;;;14.53;7.80;;;-7.80;98.00;;;;;;2063535;28;20275;-63
2024/01/20 01:31:03;;;;;;;17.13;8.05;;;-7.80;98.90;;;;;;2070870;28;20197;-64
2024/01/20 01:32:04;;;;;;;14.00;8.33;;;-7.80;99.00;;;;;;2070990;28;20202;-64
2024/01/20 01:33:04;;;;;;;12.43;6.73;;;-7.80;99.90;;;;;;2061715;28;20191;-65
2024/01/20 01:34:05;;;;;;;16.17;7.87;;;-7.90;99.90;;;;;;2064571;28;20185;-65
2024/01/20 01:35:06;;;;;;;15.63;8.83;;;-7.90;99.90;;;;;;2063576;28;21033;-64
2024/01/20 01:36:07;;;;;;;17.58;7.45;;;-8.00;99.90;;;;;;2063251;28;20225;-65
2024/01/20 01:37:08;;;;;;;12.43;6.97;;;-7.90;99.90;;;;;;2063502;28;20199;-65
2024/01/20 01:38:09;;;;;;;14.57;7.50;;;-8.00;99.90;;;;;;2064902;28;20560;-64
2024/01/20 01:39:10;;;;;;;14.60;6.95;;;-8.00;99.90;;;;;;2070791;28;20193;-65
2024/01/20 01:40:12;;;;;;;14.70;7.77;;;-8.00;99.50;;;;;;2063282;28;20187;-65
2024/01/20 01:41:13;;;;;;;12.60;6.53;;;-8.00;99.00;;;;;;2059185;28;20657;-65
2024/01/20 01:42:14;;;;;;;14.40;8.13;;;-8.00;98.60;;;;;;2071403;28;20258;-65
2024/01/20 01:43:14;;;;;;;15.53;7.80;;;-8.10;98.30;;;;;;2070917;28;20251;-65
2024/01/20 01:44:15;;;;;;;13.13;7.20;;;-8.10;99.00;;;;;;2056077;28;20684;-65
2024/01/20 01:45:16;;;;;;;14.70;7.90;;;-8.10;99.20;;;;;;2054327;28;20273;-65
2024/01/20 01:46:17;;;;;;;15.37;7.43;;;-8.10;99.20;;;;;;2072042;28;20194;-64
2024/01/20 01:47:17;;;;;;;11.63;6.63;;;-8.10;99.00;;;;;;2062669;28;20185;-65
2024/01/20 01:48:19;;;;;;;14.97;8.20;;;-8.00;99.80;;;;;;2056407;28;20187;-64
2024/01/20 01:49:20;;;;;;;14.23;7.80;;;-8.00;99.90;;;;;;2062691;28;20186;-65
2024/01/20 01:50:22;;;;;;;12.57;7.30;;;-8.00;99.90;;;;;;2062323;28;20230;-65
2024/01/20 01:51:22;;;;;;;14.15;8.00;;;-8.10;99.90;;;;;;2062012;28;20284;-64
2024/01/20 01:52:24;;;;;;;13.13;7.70;;;-8.10;99.90;;;;;;2063499;28;20226;-64
2024/01/20 01:53:25;;;;;;;13.40;6.57;;;-8.10;99.90;;;;;;2065230;28;20222;-65
2024/01/20 01:54:26;;;;;;;14.73;7.10;;;-8.20;99.90;;;;;;2071145;28;20229;-65
2024/01/20 01:55:26;;;;;;;15.02;7.47;;;-8.20;99.90;;;;;;2062871;28;20252;-65
2024/01/20 01:56:29;;;;;;;12.87;6.77;;;-8.30;99.90;;;;;;2055764;28;20226;-63
2024/01/20 01:57:30;;;;;;;13.98;6.80;;;-8.30;99.70;;;;;;2064743;28;20347;-65
2024/01/20 01:58:31;;;;;;;13.18;7.10;;;-8.40;99.00;;;;;;2058959;28;20322;-65
2024/01/20 01:59:33;;;;;;;15.93;7.43;;;-8.50;99.10;;;;;;2055850;28;20269;-65
2024/01/20 02:00:33;;;;;;;15.68;6.93;;;-8.50;99.40;;;;;;2054661;28;20273;-65
2024/01/20 02:01:34;;;;;;;11.27;6.33;;;-8.50;99.30;;;;;;2063826;28;20236;-65
2024/01/20 02:02:35;;;;;;;12.37;7.33;;;-8.50;99.10;;;;;;2061398;28;20638;-64
2024/01/20 02:03:35;;;;;;;12.37;6.57;;;-8.40;99.00;;;;;;2052178;28;20234;-65
2024/01/20 02:04:37;;;;;;;13.10;6.60;;;-8.40;98.50;;;;;;2061793;28;20271;-65
2024/01/20 02:05:38;;;;;;;12.50;6.90;;;-8.40;98.20;;;;;;2071205;28;20319;-65
2024/01/20 02:06:39;;;;;;;13.77;7.07;;;-8.30;98.10;;;;;;2071019;28;20232;-64
2024/01/20 02:07:42;;;;;;;13.55;7.20;;;-8.30;98.20;;;;;;2070388;28;20324;-65
2024/01/20 02:08:43;;;;;;;12.48;6.57;;;-8.20;98.60;;;;;;2061025;28;20652;-64
2024/01/20 02:09:46;;;;;;;11.90;6.60;;;-8.10;99.30;;;;;;2053257;28;20233;-65
2024/01/20 02:10:47;;;;;;;11.02;6.20;;;-8.20;99.40;;;;;;2047019;28;20231;-65
2024/01/20 02:11:49;;;;;;;12.00;6.47;;;-8.40;98.80;;;;;;2044000;28;20326;-65
2024/01/20 02:12:50;;;;;;;10.80;6.22;;;-8.40;98.40;;;;;;2059985;28;20244;-65
2024/01/20 02:13:51;;;;;;;11.68;6.53;;;-8.40;98.20;;;;;;2058706;28;20270;-65
2024/01/20 02:14:52;;;;;;;12.40;6.50;;;-8.40;97.80;;;;;;2054203;28;20698;-65
2024/01/20 02:15:53;;;;;;;10.68;6.75;;;-8.40;97.60;;;;;;2060948;28;20240;-65
2024/01/20 02:16:54;;;;;;;13.48;7.25;;;-8.50;97.40;;;;;;2060910;28;20233;-65
2024/01/20 02:17:55;;;;;;;10.97;5.67;;;-8.40;97.60;;;;;;2045027;28;20704;-65
2024/01/20 02:19:04;;;;;;;12.43;6.75;;;-8.50;96.90;;;;;;2055479;28;20741;-64
2024/01/20 02:20:05;;;;;;;12.00;6.05;;;-8.40;97.40;;;;;;2060026;28;20604;-64
2024/01/20 02:21:06;;;;;;;10.52;6.05;;;-8.50;97.40;;;;;;2050265;28;20644;-64
2024/01/20 02:22:15;;;;;;;12.13;6.80;;;-8.40;97.70;;;;;;2060067;28;20225;-65
2024/01/20 02:23:15;;;;;;;11.50;6.50;;;-8.30;98.70;;;;;;2061728;28;20209;-64
2024/01/20 02:24:16;;;;;;;14.27;6.60;;;-8.40;98.40;;;;;;2061822;28;20194;-65
2024/01/20 02:25:17;;;;;;;13.47;6.90;;;-8.40;98.50;;;;;;2063602;28;20197;-64
2024/01/20 02:26:17;;;;;;;10.73;5.70;;;-8.40;98.60;;;;;;2053833;28;20186;-65
2024/01/20 02:27:19;;;;;;;13.87;7.00;;;-8.30;98.90;;;;;;2061915;28;20238;-65
2024/01/20 02:28:20;;;;;;;13.73;6.63;;;-8.40;98.70;;;;;;2061265;28;20225;-65
2024/01/20 02:29:20;;;;;;;11.53;6.60;;;-8.30;99.50;;;;;;2061063;28;21129;-65
2024/01/20 02:30:21;;;;;;;11.13;6.80;;;-8.30;99.40;;;;;;2070433;28;20732;-64
2024/01/20 02:31:22;;;;;;;11.50;5.70;;;-8.40;99.70;;;;;;2070071;28;20218;-65
2024/01/20 02:32:22;;;;;;;9.77;5.93;;;-8.40;99.90;;;;;;2069738;28;20221;-62
2024/01/20 02:33:23;;;;;;;10.50;6.40;;;-8.40;99.90;;;;;;2068208;28;20235;-63
2024/01/20 02:34:24;;;;;;;14.00;7.07;;;-8.40;99.70;;;;;;2070214;28;20232;-65
2024/01/20 02:35:25;;;;;;;10.83;6.47;;;-8.40;99.10;;;;;;2071006;28;20224;-65
2024/01/20 02:36:25;;;;;;;12.40;6.40;;;-8.40;99.10;;;;;;2061287;28;20232;-65
2024/01/20 02:37:26;;;;;;;10.97;6.33;;;-8.40;99.20;;;;;;2059786;28;20230;-65
2024/01/20 02:38:27;;;;;;;10.97;6.00;;;-8.50;99.00;;;;;;2063180;28;20251;-65
2024/01/20 02:39:27;;;;;;;12.20;6.20;;;-8.50;98.90;;;;;;2067348;28;20311;-64
2024/01/20 02:40:28;;;;;;;11.77;6.73;;;-8.60;98.50;;;;;;2065916;28;20233;-66
2024/01/20 02:41:29;;;;;;;12.37;6.67;;;-8.70;98.20;;;;;;2069535;28;20236;-65
2024/01/20 02:42:29;;;;;;;12.97;6.63;;;-8.60;98.40;;;;;;2071275;28;20256;-64
2024/01/20 02:43:30;;;;;;;11.47;6.27;;;-8.60;99.20;;;;;;2065431;28;20320;-64
2024/01/20 02:44:31;;;;;;;12.70;6.97;;;-8.50;99.80;;;;;;2053239;28;20234;-64
2024/01/20 02:45:31;;;;;;;11.83;6.47;;;-8.50;99.90;;;;;;2055096;28;20792;-63
2024/01/20 02:46:32;;;;;;;10.97;6.50;;;-8.60;98.90;;;;;;2062853;28;20675;-64
2024/01/20 02:47:33;;;;;;;12.80;6.50;;;-8.70;98.30;;;;;;2070151;28;20225;-65
2024/01/20 02:48:33;;;;;;;12.70;6.37;;;-8.70;97.60;;;;;;2053326;28;20683;-64
2024/01/20 02:49:34;;;;;;;15.00;6.70;;;-8.70;97.10;;;;;;2056012;28;20797;-65
2024/01/20 02:50:35;;;;;;;11.97;6.00;;;-8.70;97.70;;;;;;2060423;28;20257;-65
2024/01/20 02:51:36;;;;;;;11.07;6.37;;;-8.60;98.80;;;;;;2063190;28;20759;-64
2024/01/20 02:52:36;;;;;;;9.97;5.37;;;-8.60;98.20;;;;;;2070614;28;20237;-65
2024/01/20 02:53:37;;;;;;;10.10;6.20;;;-8.70;97.60;;;;;;2069145;28;20255;-65
2024/01/20 02:54:38;;;;;;;11.10;6.20;;;-8.70;97.30;;;;;;2061457;28;20288;-65
2024/01/20 02:55:38;;;;;;;13.00;6.50;;;-8.60;97.60;;;;;;2061805;28;20243;-65
2024/01/20 02:56:39;;;;;;;12.67;6.50;;;-8.60;97.80;;;;;;2069173;28;20231;-65
2024/01/20 02:57:40;;;;;;;9.13;5.90;;;-8.60;97.80;;;;;;2067180;28;20643;-65
2024/01/20 02:58:40;;;;;;;10.80;6.07;;;-8.50;97.80;;;;;;2069028;28;20228;-65
2024/01/20 02:59:41;;;;;;;10.13;6.00;;;-8.50;97.80;;;;;;2057924;28;20257;-64
2024/01/20 03:00:42;;;;;;;10.63;5.53;;;-8.60;97.50;;;;;;2059859;28;20265;-65
2024/01/20 03:01:42;;;;;;;10.17;5.17;;;-8.50;98.50;;;;;;2060532;28;20328;-65
2024/01/20 03:02:43;;;;;;;10.23;6.03;;;-8.40;98.50;;;;;;2068100;28;20332;-65
2024/01/20 03:03:45;;;;;;;9.77;5.77;;;-8.50;98.70;;;;;;2069153;28;20268;-64
2024/01/20 03:04:45;;;;;;;13.02;5.78;;;-8.50;99.20;;;;;;2061765;28;20236;-65
2024/01/20 03:05:46;;;;;;;9.17;4.80;;;-8.60;99.10;;;;;;2060612;28;20827;-65
2024/01/20 03:06:47;;;;;;;10.33;5.17;;;-8.60;98.80;;;;;;2068965;28;20291;-65
2024/01/20 03:07:47;;;;;;;9.93;5.80;;;-8.50;99.50;;;;;;2060645;28;20225;-65
2024/01/20 03:08:48;;;;;;;8.43;4.90;;;-8.60;98.90;;;;;;2063979;28;20234;-65
2024/01/20 03:09:48;;;;;;;10.00;5.30;;;-8.60;98.20;;;;;;2070350;28;20721;-65
2024/01/20 03:10:49;;;;;;;10.30;5.10;;;-8.70;98.00;;;;;;2065427;28;20236;-65
2024/01/20 03:11:50;;;;;;;10.40;5.73;;;-8.80;97.40;;;;;;2069637;28;20229;-64
2024/01/20 03:12:51;;;;;;;8.80;5.23;;;-8.70;97.80;;;;;;2060692;28;20469;-64
2024/01/20 03:13:51;;;;;;;8.03;5.40;;;-8.70;98.30;;;;;;2060543;28;20228;-65
2024/01/20 03:14:52;;;;;;;9.40;4.70;;;-8.80;97.60;;;;;;2060880;28;20233;-65
2024/01/20 03:15:53;;;;;;;9.23;5.30;;;-8.80;96.90;;;;;;2061159;28;20235;-65
2024/01/20 03:16:53;;;;;;;8.63;5.47;;;-8.90;97.20;;;;;;2069333;28;20369;-64
2024/01/20 03:17:54;;;;;;;9.43;5.67;;;-8.80;98.10;;;;;;2069109;28;20267;-64
2024/01/20 03:18:55;;;;;;;10.77;5.90;;;-8.70;98.10;;;;;;2067926;28;20287;-65
2024/01/20 03:19:56;;;;;;;11.17;6.17;;;-8.70;98.90;;;;;;2071339;28;20729;-65
2024/01/20 03:20:56;;;;;;;9.68;5.82;;;-8.60;99.80;;;;;;2069283;28;20232;-65
2024/01/20 03:21:57;;;;;;;11.27;6.63;;;-8.70;99.60;;;;;;2069600;28;20823;-65
2024/01/20 03:22:58;;;;;;;11.60;5.50;;;-8.70;99.50;;;;;;2052833;28;20325;-63
2024/01/20 03:23:58;;;;;;;8.57;4.97;;;-8.70;99.20;;;;;;2047636;28;20280;-64
2024/01/20 03:24:59;;;;;;;12.10;6.43;;;-8.70;99.40;;;;;;2056649;28;20315;-65
2024/01/20 03:26:08;;;;;;;12.23;6.47;;;-8.60;99.80;;;;;;2068600;28;20245;-64
2024/01/20 03:27:09;;;;;;;10.90;6.40;;;-8.80;99.60;;;;;;2056769;28;20312;-65
2024/01/20 03:28:10;;;;;;;10.68;5.50;;;-8.80;99.60;;;;;;2069230;28;20184;-65
2024/01/20 03:29:10;;;;;;;11.37;6.80;;;-8.80;99.80;;;;;;2069889;28;20184;-64
2024/01/20 03:30:11;;;;;;;9.73;5.13;;;-8.70;99.80;;;;;;2069037;28;20226;-64
2024/01/20 03:31:12;;;;;;;11.57;6.03;;;-8.70;99.90;;;;;;2069614;28;20709;-63
2024/01/20 03:32:13;;;;;;;10.17;5.77;;;-8.80;99.20;;;;;;2060353;28;20189;-65
2024/01/20 03:33:13;;;;;;;10.43;5.73;;;-8.70;99.20;;;;;;2053955;28;20666;-64
2024/01/20 03:34:14;;;;;;;9.37;5.57;;;-8.70;98.90;;;;;;2061024;28;20213;-64
2024/01/20 03:35:15;;;;;;;8.53;4.93;;;-8.60;99.00;;;;;;2065074;28;20665;-63
2024/01/20 03:36:15;;;;;;;10.50;5.50;;;-8.60;98.50;;;;;;2059961;28;20211;-65
2024/01/20 03:37:16;;;;;;;11.20;5.93;;;-8.80;97.30;;;;;;2063412;28;20185;-64
2024/01/20 03:38:18;;;;;;;9.00;5.90;;;-8.80;97.50;;;;;;2062642;28;20192;-64
2024/01/20 03:39:18;;;;;;;11.77;6.22;;;-8.80;98.20;;;;;;2062346;28;20186;-64
2024/01/20 03:40:19;;;;;;;12.83;5.73;;;-8.70;98.90;;;;;;2061839;28;20552;-64
2024/01/20 03:41:20;;;;;;;9.77;5.33;;;-8.70;98.50;;;;;;2062923;28;20186;-65
2024/01/20 03:42:22;;;;;;;9.43;5.07;;;-8.70;99.00;;;;;;2069582;28;20237;-64
2024/01/20 03:43:23;;;;;;;10.02;5.60;;;-8.60;98.90;;;;;;2070612;28;20237;-65
2024/01/20 03:44:24;;;;;;;9.80;5.53;;;-8.70;98.20;;;;;;2053445;28;20733;-65
2024/01/20 03:45:24;;;;;;;10.80;5.50;;;-8.60;98.30;;;;;;2048481;28;20237;-64
2024/01/20 03:46:25;;;;;;;9.37;5.90;;;-8.60;98.90;;;;;;2061624;28;20268;-65
2024/01/20 03:47:26;;;;;;;8.67;5.00;;;-8.60;98.50;;;;;;2062756;28;20263;-65
2024/01/20 03:48:26;;;;;;;10.07;5.83;;;-8.60;98.20;;;;;;2062300;28;20232;-64
2024/01/20 03:49:27;;;;;;;11.60;6.30;;;-8.70;98.30;;;;;;2067018;28;20263;-64
2024/01/20 03:50:28;;;;;;;10.10;6.03;;;-8.70;98.70;;;;;;2067342;28;20270;-65
2024/01/20 03:51:29;;;;;;;11.27;6.37;;;-8.70;99.50;;;;;;2069574;28;20573;-64
2024/01/20 03:52:29;;;;;;;10.57;6.13;;;-8.70;99.70;;;;;;2069247;28;20233;-64
2024/01/20 03:53:30;;;;;;;11.43;6.17;;;-8.70;99.60;;;;;;2071329;28;20229;-65
2024/01/20 03:54:31;;;;;;;11.23;6.07;;;-8.80;99.50;;;;;;2069763;28;20239;-64
2024/01/20 03:55:32;;;;;;;12.73;6.40;;;-8.70;99.50;;;;;;2069488;28;20286;-65
2024/01/20 03:56:32;;;;;;;10.98;6.10;;;-8.80;98.50;;;;;;2062804;28;20239;-64
2024/01/20 03:57:33;;;;;;;11.40;6.80;;;-8.80;98.40;;;;;;2062777;28;20246;-65
2024/01/20 03:58:34;;;;;;;12.90;6.00;;;-8.70;99.10;;;;;;2069794;28;20242;-65
2024/01/20 03:59:36;;;;;;;13.80;6.33;;;-8.80;98.10;;;;;;2069506;28;20229;-64
2024/01/20 04:00:37;;;;;;;12.90;6.63;;;-9.00;97.30;;;;;;2062726;28;20701;-65
2024/01/20 04:01:39;;;;;;;11.33;6.10;;;-9.00;97.70;;;;;;2064523;28;20248;-65
2024/01/20 04:02:40;;;;;;;9.88;5.68;;;-9.00;97.70;;;;;;2069375;28;20249;-64
2024/01/20 04:03:40;;;;;;;10.47;5.73;;;-8.90;98.30;;;;;;2056740;28;20236;-64
2024/01/20 04:04:41;;;;;;;10.73;6.30;;;-8.90;98.60;;;;;;2054487;28;20598;-65
2024/01/20 04:05:42;;;;;;;11.37;6.60;;;-8.80;99.00;;;;;;2058174;28;20315;-64
2024/01/20 04:06:42;;;;;;;10.80;6.37;;;-8.80;98.60;;;;;;2069528;28;20245;-63
2024/01/20 04:07:43;;;;;;;8.67;5.70;;;-8.90;97.70;;;;;;2071141;28;20236;-64
2024/01/20 04:08:44;;;;;;;9.60;5.77;;;-8.90;97.60;;;;;;2061396;28;20284;-65
2024/01/20 04:09:44;;;;;;;11.90;6.37;;;-8.90;97.60;;;;;;2062950;28;20222;-63
2024/01/20 04:10:45;;;;;;;11.50;5.83;;;-9.00;96.80;;;;;;2070137;28;20232;-64
2024/01/20 04:11:46;;;;;;;12.57;6.13;;;-9.10;96.50;;;;;;2069470;28;20231;-65
2024/01/20 04:12:47;;;;;;;12.07;6.13;;;-9.10;96.70;;;;;;2061207;28;20263;-63
2024/01/20 04:13:47;;;;;;;11.20;6.03;;;-9.20;96.90;;;;;;2061784;28;20225;-64
2024/01/20 04:14:48;;;;;;;11.30;5.50;;;-9.10;97.40;;;;;;2063780;28;20635;-65
2024/01/20 04:15:49;;;;;;;10.27;5.87;;;-9.00;97.60;;;;;;2063695;28;20221;-65
2024/01/20 04:16:49;;;;;;;10.50;6.00;;;-9.00;97.70;;;;;;2070978;28;20239;-64
2024/01/20 04:17:52;;;;;;;8.53;5.60;;;-9.00;97.30;;;;;;2071163;28;20236;-65
2024/01/20 04:18:53;;;;;;;11.48;5.85;;;-8.90;98.10;;;;;;2071075;28;20236;-63
2024/01/20 04:19:53;;;;;;;11.17;6.50;;;-8.90;98.20;;;;;;2070014;28;20235;-64
2024/01/20 04:20:54;;;;;;;10.27;5.93;;;-8.90;98.10;;;;;;2069577;28;20592;-64
2024/01/20 04:21:55;;;;;;;9.20;5.30;;;-8.80;98.20;;;;;;2068472;28;20240;-65
2024/01/20 04:22:55;;;;;;;10.17;5.63;;;-8.90;98.20;;;;;;2067682;28;20244;-64
2024/01/20 04:23:56;;;;;;;8.83;5.50;;;-8.90;98.00;;;;;;2053422;28;20238;-63
2024/01/20 04:24:56;;;;;;;9.67;6.20;;;-8.90;98.60;;;;;;2046720;28;20616;-64
2024/01/20 04:25:57;;;;;;;8.13;4.53;;;-8.90;98.50;;;;;;2060174;28;20229;-64
2024/01/20 04:26:58;;;;;;;12.37;5.70;;;-9.00;97.40;;;;;;2067592;28;20231;-64
2024/01/20 04:27:58;;;;;;;9.37;4.93;;;-9.10;96.80;;;;;;2069535;28;20278;-65
2024/01/20 04:28:59;;;;;;;10.20;5.47;;;-9.20;96.50;;;;;;2070064;28;20274;-65
2024/01/20 04:30:00;;;;;;;9.67;5.97;;;-9.20;96.80;;;;;;2061631;28;20660;-64
2024/01/20 04:31:01;;;;;;;11.23;5.70;;;-9.10;97.70;;;;;;2060567;28;20967;-63
2024/01/20 04:32:01;;;;;;;9.93;5.27;;;-9.20;97.20;;;;;;2068888;28;20219;-64
2024/01/20 04:33:02;;;;;;;9.70;4.90;;;-9.20;96.90;;;;;;2069006;28;20193;-64
2024/01/20 04:34:04;;;;;;;9.70;5.47;;;-9.30;97.00;;;;;;2063021;28;20284;-63
2024/01/20 04:35:07;;;;;;;9.23;5.00;;;-9.20;97.80;;;;;;2061369;28;20239;-63
2024/01/20 04:36:07;;;;;;;11.75;5.60;;;-9.30;97.30;;;;;;2068481;28;20192;-64
2024/01/20 04:37:08;;;;;;;9.23;5.03;;;-9.20;97.20;;;;;;2070131;28;20187;-64
2024/01/20 04:38:09;;;;;;;10.20;5.40;;;-9.20;96.90;;;;;;2062603;28;20664;-65
2024/01/20 04:39:10;;;;;;;7.83;4.67;;;-9.20;96.70;;;;;;2062398;28;20184;-64
2024/01/20 04:40:10;;;;;;;10.57;4.57;;;-9.10;96.90;;;;;;2068038;28;20212;-64
2024/01/20 04:41:11;;;;;;;8.77;5.10;;;-9.30;96.00;;;;;;2062481;28;20216;-64
2024/01/20 04:42:12;;;;;;;10.87;5.93;;;-9.20;96.40;;;;;;2065333;28;20200;-64
2024/01/20 04:43:12;;;;;;;9.47;5.00;;;-9.20;96.60;;;;;;2070066;28;20204;-64
2024/01/20 04:44:13;;;;;;;10.13;5.97;;;-9.10;96.60;;;;;;2064752;28;20196;-63
2024/01/20 04:45:15;;;;;;;10.87;5.67;;;-9.10;96.70;;;;;;2062847;28;20209;-65
2024/01/20 04:46:16;;;;;;;9.45;5.25;;;-9.10;96.90;;;;;;2070680;28;20216;-65
2024/01/20 04:47:16;;;;;;;10.93;5.40;;;-9.10;96.70;;;;;;2065471;28;20180;-65
2024/01/20 04:48:17;;;;;;;8.97;4.90;;;-9.10;96.50;;;;;;2063587;28;20230;-64
2024/01/20 04:49:18;;;;;;;8.90;5.03;;;-9.10;96.90;;;;;;2071397;28;20187;-65
2024/01/20 04:50:19;;;;;;;9.60;5.63;;;-9.10;96.90;;;;;;2063811;28;20619;-65
2024/01/20 04:51:19;;;;;;;9.60;5.33;;;-9.10;97.70;;;;;;2054576;28;20717;-64
2024/01/20 04:52:20;;;;;;;8.40;5.20;;;-9.10;98.50;;;;;;2065789;28;20184;-64
2024/01/20 04:53:21;;;;;;;8.73;5.00;;;-9.10;98.20;;;;;;2070925;28;20864;-65
2024/01/20 04:54:21;;;;;;;9.50;5.07;;;-9.10;98.80;;;;;;2070898;28;20237;-63
2024/01/20 04:55:22;;;;;;;10.67;6.13;;;-9.10;98.70;;;;;;2063104;28;20258;-64
2024/01/20 04:56:23;;;;;;;12.97;6.40;;;-9.10;98.80;;;;;;2066099;28;20229;-64
2024/01/20 04:57:23;;;;;;;10.57;6.23;;;-9.10;99.40;;;;;;2070492;28;20259;-64
2024/01/20 04:58:24;;;;;;;11.47;5.83;;;-9.10;99.00;;;;;;2064552;28;20307;-65
2024/01/20 04:59:25;;;;;;;13.30;7.00;;;-9.10;98.50;;;;;;2061575;28;20240;-65
2024/01/20 05:00:25;;;;;;;12.83;6.60;;;-9.10;98.10;;;;;;2071735;28;20575;-64
2024/01/20 05:01:26;;;;;;;13.00;6.63;;;-9.10;98.50;;;;;;2064941;28;20244;-65
2024/01/20 05:02:27;;;;;;;9.67;5.60;;;-9.10;98.20;;;;;;2065472;28;20256;-65
2024/01/20 05:03:27;;;;;;;8.63;5.30;;;-9.10;97.60;;;;;;2064419;28;20311;-63
2024/01/20 05:04:28;;;;;;;9.77;5.47;;;-9.20;97.20;;;;;;2063354;28;20689;-64
2024/01/20 05:05:29;;;;;;;10.03;5.30;;;-9.30;97.10;;;;;;2070063;28;20254;-64
2024/01/20 05:06:29;;;;;;;11.23;5.17;;;-9.40;97.40;;;;;;2065480;28;20231;-65
2024/01/20 05:07:30;;;;;;;11.70;6.07;;;-9.30;98.70;;;;;;2064279;28;20259;-63
2024/01/20 05:08:31;;;;;;;9.83;5.77;;;-9.20;99.20;;;;;;2070496;28;20240;-65
2024/01/20 05:09:31;;;;;;;10.37;5.30;;;-9.20;99.20;;;;;;2064085;28;20260;-65
2024/01/20 05:10:33;;;;;;;9.87;5.13;;;-9.10;99.30;;;;;;2056027;28;20263;-64
2024/01/20 05:11:34;;;;;;;9.05;5.05;;;-9.10;99.30;;;;;;2065256;28;20240;-64
2024/01/20 05:12:34;;;;;;;10.80;5.43;;;-9.10;98.80;;;;;;2064563;28;20719;-65
2024/01/20 05:13:35;;;;;;;8.83;5.50;;;-9.10;98.70;;;;;;2063652;28;20592;-65